sensor_id;sensor_type;location;lat;lon;timestamp;P1;durP1;ratioP1;P2;durP2;ratioP2
38252;SDS011;24785;52.372;20.672;2022-09-11T00:04:38;21.67;;;11.60;;
38252;SDS011;24785;52.372;20.672;2022-09-11T00:14:38;25.73;;;12.60;;
38252;SDS011;24785;52.372;20.672;2022-09-11T00:24:40;26.42;;;12.80;;
38252;SDS011;24785;52.372;20.672;2022-09-11T00:34:40;32.70;;;15.93;;
38252;SDS011;24785;52.372;20.672;2022-09-11T00:54:46;41.08;;;17.20;;
38252;SDS011;24785;52.372;20.672;2022-09-11T01:04:52;44.70;;;20.23;;
38252;SDS011;24785;52.372;20.672;2022-09-11T01:15:01;48.47;;;20.35;;
38252;SDS011;24785;52.372;20.672;2022-09-11T01:35:23;36.08;;;17.38;;
38252;SDS011;24785;52.372;20.672;2022-09-11T01:45:33;42.33;;;19.83;;
38252;SDS011;24785;52.372;20.672;2022-09-11T01:55:39;36.75;;;18.60;;
38252;SDS011;24785;52.372;20.672;2022-09-11T02:05:59;43.28;;;19.13;;
38252;SDS011;24785;52.372;20.672;2022-09-11T02:16:15;39.40;;;18.42;;
38252;SDS011;24785;52.372;20.672;2022-09-11T02:26:23;32.00;;;16.15;;
38252;SDS011;24785;52.372;20.672;2022-09-11T02:36:36;34.50;;;16.65;;
38252;SDS011;24785;52.372;20.672;2022-09-11T02:46:52;34.80;;;16.70;;
38252;SDS011;24785;52.372;20.672;2022-09-11T02:57:06;29.48;;;15.68;;
38252;SDS011;24785;52.372;20.672;2022-09-11T03:07:14;31.50;;;15.07;;
38252;SDS011;24785;52.372;20.672;2022-09-11T03:17:16;32.25;;;15.15;;
38252;SDS011;24785;52.372;20.672;2022-09-11T03:27:17;29.38;;;14.70;;
38252;SDS011;24785;52.372;20.672;2022-09-11T03:37:17;31.00;;;15.45;;
38252;SDS011;24785;52.372;20.672;2022-09-11T03:47:18;28.10;;;13.88;;
38252;SDS011;24785;52.372;20.672;2022-09-11T04:07:22;31.23;;;12.98;;
38252;SDS011;24785;52.372;20.672;2022-09-11T04:17:23;30.15;;;13.18;;
38252;SDS011;24785;52.372;20.672;2022-09-11T04:27:24;27.02;;;13.80;;
38252;SDS011;24785;52.372;20.672;2022-09-11T04:37:26;25.57;;;12.97;;
38252;SDS011;24785;52.372;20.672;2022-09-11T04:47:28;29.38;;;12.73;;
38252;SDS011;24785;52.372;20.672;2022-09-11T04:57:29;25.52;;;11.55;;
38252;SDS011;24785;52.372;20.672;2022-09-11T05:07:30;21.75;;;11.48;;
38252;SDS011;24785;52.372;20.672;2022-09-11T05:17:31;18.48;;;9.20;;
38252;SDS011;24785;52.372;20.672;2022-09-11T05:27:32;18.48;;;9.25;;
38252;SDS011;24785;52.372;20.672;2022-09-11T05:37:33;18.27;;;8.98;;
38252;SDS011;24785;52.372;20.672;2022-09-11T05:47:33;17.17;;;8.55;;
38252;SDS011;24785;52.372;20.672;2022-09-11T05:57:34;16.42;;;8.82;;
38252;SDS011;24785;52.372;20.672;2022-09-11T06:07:35;29.23;;;8.80;;
38252;SDS011;24785;52.372;20.672;2022-09-11T06:17:36;16.58;;;7.82;;
38252;SDS011;24785;52.372;20.672;2022-09-11T06:27:38;15.45;;;7.57;;
38252;SDS011;24785;52.372;20.672;2022-09-11T06:37:38;16.98;;;8.73;;
38252;SDS011;24785;52.372;20.672;2022-09-11T06:47:40;56.05;;;20.25;;
38252;SDS011;24785;52.372;20.672;2022-09-11T06:57:41;20.52;;;9.15;;
38252;SDS011;24785;52.372;20.672;2022-09-11T07:07:41;38.25;;;19.90;;
38252;SDS011;24785;52.372;20.672;2022-09-11T07:17:43;26.58;;;14.02;;
38252;SDS011;24785;52.372;20.672;2022-09-11T07:27:44;25.83;;;12.77;;
38252;SDS011;24785;52.372;20.672;2022-09-11T07:37:45;28.10;;;20.42;;
38252;SDS011;24785;52.372;20.672;2022-09-11T07:47:46;20.17;;;9.50;;
38252;SDS011;24785;52.372;20.672;2022-09-11T07:57:46;24.45;;;11.85;;
38252;SDS011;24785;52.372;20.672;2022-09-11T08:07:49;42.65;;;23.08;;
38252;SDS011;24785;52.372;20.672;2022-09-11T08:17:50;44.42;;;18.60;;
38252;SDS011;24785;52.372;20.672;2022-09-11T08:27:51;24.55;;;9.27;;
38252;SDS011;24785;52.372;20.672;2022-09-11T08:37:52;16.73;;;8.57;;
38252;SDS011;24785;52.372;20.672;2022-09-11T08:47:55;16.98;;;8.82;;
38252;SDS011;24785;52.372;20.672;2022-09-11T09:18:45;7.90;;;3.67;;
38252;SDS011;24785;52.372;20.672;2022-09-11T09:28:52;11.88;;;6.18;;
38252;SDS011;24785;52.372;20.672;2022-09-11T09:38:57;77.32;;;42.33;;
38252;SDS011;24785;52.372;20.672;2022-09-11T09:48:58;13.73;;;5.35;;
38252;SDS011;24785;52.372;20.672;2022-09-11T09:59:01;16.67;;;6.37;;
38252;SDS011;24785;52.372;20.672;2022-09-11T10:09:17;12.35;;;5.68;;
38252;SDS011;24785;52.372;20.672;2022-09-11T10:19:33;11.65;;;4.90;;
38252;SDS011;24785;52.372;20.672;2022-09-11T10:29:39;13.07;;;6.30;;
38252;SDS011;24785;52.372;20.672;2022-09-11T10:39:49;11.93;;;6.00;;
38252;SDS011;24785;52.372;20.672;2022-09-11T10:50:24;12.47;;;6.30;;
38252;SDS011;24785;52.372;20.672;2022-09-11T11:10:27;11.30;;;5.67;;
38252;SDS011;24785;52.372;20.672;2022-09-11T11:20:51;9.85;;;4.95;;
38252;SDS011;24785;52.372;20.672;2022-09-11T11:31:30;11.77;;;6.28;;
38252;SDS011;24785;52.372;20.672;2022-09-11T11:41:43;12.20;;;4.63;;
38252;SDS011;24785;52.372;20.672;2022-09-11T11:51:49;12.40;;;5.53;;
38252;SDS011;24785;52.372;20.672;2022-09-11T12:12:07;64.32;;;31.50;;
38252;SDS011;24785;52.372;20.672;2022-09-11T12:22:11;6.85;;;2.97;;
38252;SDS011;24785;52.372;20.672;2022-09-11T12:52:28;14.93;;;7.07;;
38252;SDS011;24785;52.372;20.672;2022-09-11T13:02:44;12.20;;;3.45;;
38252;SDS011;24785;52.372;20.672;2022-09-11T13:12:52;11.23;;;2.88;;
38252;SDS011;24785;52.372;20.672;2022-09-11T13:23:07;12.05;;;4.63;;
38252;SDS011;24785;52.372;20.672;2022-09-11T13:33:16;9.82;;;3.40;;
38252;SDS011;24785;52.372;20.672;2022-09-11T13:43:21;24.65;;;7.70;;
38252;SDS011;24785;52.372;20.672;2022-09-11T13:53:29;32.70;;;16.25;;
38252;SDS011;24785;52.372;20.672;2022-09-11T14:03:30;10.20;;;2.70;;
38252;SDS011;24785;52.372;20.672;2022-09-11T14:23:56;5.50;;;2.08;;
38252;SDS011;24785;52.372;20.672;2022-09-11T14:34:03;4.30;;;1.60;;
38252;SDS011;24785;52.372;20.672;2022-09-11T14:44:15;2.63;;;1.65;;
38252;SDS011;24785;52.372;20.672;2022-09-11T14:54:17;5.90;;;1.80;;
38252;SDS011;24785;52.372;20.672;2022-09-11T15:04:20;4.87;;;2.37;;
38252;SDS011;24785;52.372;20.672;2022-09-11T15:14:22;4.40;;;1.40;;
38252;SDS011;24785;52.372;20.672;2022-09-11T15:24:24;4.53;;;1.80;;
38252;SDS011;24785;52.372;20.672;2022-09-11T15:34:25;4.77;;;1.60;;
38252;SDS011;24785;52.372;20.672;2022-09-11T15:44:28;7.25;;;1.70;;
38252;SDS011;24785;52.372;20.672;2022-09-11T15:54:31;4.22;;;2.13;;
38252;SDS011;24785;52.372;20.672;2022-09-11T16:04:32;8.65;;;1.85;;
38252;SDS011;24785;52.372;20.672;2022-09-11T16:14:35;8.03;;;3.13;;
38252;SDS011;24785;52.372;20.672;2022-09-11T16:24:37;5.38;;;2.30;;
38252;SDS011;24785;52.372;20.672;2022-09-11T16:34:38;6.00;;;2.55;;
38252;SDS011;24785;52.372;20.672;2022-09-11T16:44:39;4.07;;;1.60;;
38252;SDS011;24785;52.372;20.672;2022-09-11T16:54:41;4.23;;;1.53;;
38252;SDS011;24785;52.372;20.672;2022-09-11T17:04:43;2.87;;;1.50;;
38252;SDS011;24785;52.372;20.672;2022-09-11T17:14:44;5.32;;;2.28;;
38252;SDS011;24785;52.372;20.672;2022-09-11T17:24:56;2.85;;;1.58;;
38252;SDS011;24785;52.372;20.672;2022-09-11T17:34:57;5.65;;;1.60;;
38252;SDS011;24785;52.372;20.672;2022-09-11T17:44:58;5.65;;;2.30;;
38252;SDS011;24785;52.372;20.672;2022-09-11T17:55:00;6.10;;;2.13;;
38252;SDS011;24785;52.372;20.672;2022-09-11T18:05:01;4.20;;;1.70;;
38252;SDS011;24785;52.372;20.672;2022-09-11T18:15:02;5.03;;;2.80;;
38252;SDS011;24785;52.372;20.672;2022-09-11T18:25:04;5.20;;;1.63;;
38252;SDS011;24785;52.372;20.672;2022-09-11T18:35:05;6.25;;;1.90;;
38252;SDS011;24785;52.372;20.672;2022-09-11T18:45:07;3.80;;;1.70;;
38252;SDS011;24785;52.372;20.672;2022-09-11T18:55:10;7.15;;;1.90;;
38252;SDS011;24785;52.372;20.672;2022-09-11T19:05:12;7.22;;;1.73;;
38252;SDS011;24785;52.372;20.672;2022-09-11T19:15:15;4.53;;;2.00;;
38252;SDS011;24785;52.372;20.672;2022-09-11T19:25:16;5.20;;;2.10;;
38252;SDS011;24785;52.372;20.672;2022-09-11T19:35:17;5.55;;;1.83;;
38252;SDS011;24785;52.372;20.672;2022-09-11T19:45:18;7.00;;;2.30;;
38252;SDS011;24785;52.372;20.672;2022-09-11T19:55:20;4.20;;;1.90;;
38252;SDS011;24785;52.372;20.672;2022-09-11T20:05:21;6.35;;;1.90;;
38252;SDS011;24785;52.372;20.672;2022-09-11T20:15:22;7.80;;;2.20;;
38252;SDS011;24785;52.372;20.672;2022-09-11T20:25:23;5.85;;;2.10;;
38252;SDS011;24785;52.372;20.672;2022-09-11T20:35:25;6.65;;;2.28;;
38252;SDS011;24785;52.372;20.672;2022-09-11T20:45:26;6.63;;;2.47;;
38252;SDS011;24785;52.372;20.672;2022-09-11T20:55:27;8.05;;;1.98;;
38252;SDS011;24785;52.372;20.672;2022-09-11T21:05:28;5.72;;;2.17;;
38252;SDS011;24785;52.372;20.672;2022-09-11T21:15:29;5.95;;;2.38;;
38252;SDS011;24785;52.372;20.672;2022-09-11T21:25:30;6.30;;;2.33;;
38252;SDS011;24785;52.372;20.672;2022-09-11T21:35:31;4.05;;;2.30;;
38252;SDS011;24785;52.372;20.672;2022-09-11T21:45:32;5.97;;;2.35;;
38252;SDS011;24785;52.372;20.672;2022-09-11T21:55:37;6.38;;;2.75;;
38252;SDS011;24785;52.372;20.672;2022-09-11T22:05:40;6.35;;;2.65;;
38252;SDS011;24785;52.372;20.672;2022-09-11T22:15:45;6.55;;;2.45;;
38252;SDS011;24785;52.372;20.672;2022-09-11T22:25:55;5.15;;;2.55;;
38252;SDS011;24785;52.372;20.672;2022-09-11T22:35:57;8.05;;;2.47;;
38252;SDS011;24785;52.372;20.672;2022-09-11T22:45:58;7.88;;;2.50;;
38252;SDS011;24785;52.372;20.672;2022-09-11T22:55:59;5.90;;;2.88;;
38252;SDS011;24785;52.372;20.672;2022-09-11T23:06:01;6.65;;;2.50;;
38252;SDS011;24785;52.372;20.672;2022-09-11T23:16:21;5.57;;;2.67;;
38252;SDS011;24785;52.372;20.672;2022-09-11T23:26:25;6.90;;;2.65;;
38252;SDS011;24785;52.372;20.672;2022-09-11T23:36:27;9.77;;;2.58;;
38252;SDS011;24785;52.372;20.672;2022-09-11T23:46:29;4.80;;;2.70;;
38252;SDS011;24785;52.372;20.672;2022-09-11T23:56:31;7.00;;;2.95;;
